Simpsons, Virginia
Current Conditions -  °F | °C
As of 5:55 AM on Wednesday 22 Oct 2014 (Local Time) from KBCB Reporting Station
Broken Clouds Broken Clouds  
Wind Chill:   Ceiling: 3000
Heat Index:   Visibility: 10mi
Dew Point:   Wind: 13mph
Humidity: 81%   Direction: 320°NW
Pressure: 30.04"   Gusts: 20mph
Location:  37.0318°N, 80.2402°W
Report Text: KBCB 220955Z AUTO 32011G17KT 10SM BKN030 07/04 A3004 RMK AO2
Loading
Personal Weather Stations






























Interactive Weather Map
Tropical Storm Tracking
New forecast layout! Learn more

10-Day Weather Forecast

Advertisements
Track Severe Weather on mobile